createdAt,value
2019-05-14T00:01:57.892Z,7.01
2019-05-14T00:04:07.248Z,7.00
2019-05-14T00:06:13.783Z,6.98
2019-05-14T00:08:22.198Z,6.98
2019-05-14T00:10:28.763Z,6.98
2019-05-14T00:12:35.432Z,6.96
2019-05-14T00:14:43.953Z,6.95
2019-05-14T00:16:51.374Z,6.91
2019-05-14T00:19:02.697Z,6.90
2019-05-14T00:21:11.990Z,6.88
2019-05-14T00:23:17.475Z,6.89
2019-05-14T00:25:25.790Z,6.91
2019-05-14T00:27:32.135Z,6.89
2019-05-14T00:29:38.630Z,6.86
2019-05-14T00:31:45.186Z,6.83
2019-05-14T00:33:54.509Z,6.78
2019-05-14T00:36:02.195Z,6.73
2019-05-14T00:38:08.555Z,6.67
2019-05-14T00:40:15.346Z,6.61
2019-05-14T00:42:23.238Z,6.59
2019-05-14T00:44:32.140Z,6.58
2019-05-14T00:46:40.963Z,6.53
2019-05-14T00:48:48.684Z,6.47
2019-05-14T00:50:55.153Z,6.39
2019-05-14T00:53:01.871Z,6.31
2019-05-14T00:55:11.715Z,6.23
2019-05-14T00:57:18.462Z,6.18
2019-05-14T00:59:25.304Z,6.16
2019-05-14T01:01:31.964Z,6.12
2019-05-14T01:03:38.347Z,6.09
2019-05-14T01:05:44.696Z,6.09
2019-05-14T01:07:53.019Z,6.10
2019-05-14T01:10:01.176Z,6.11
2019-05-14T01:12:07.149Z,6.07
2019-05-14T01:14:13.434Z,6.01
2019-05-14T01:16:19.694Z,5.94
2019-05-14T01:18:27.167Z,5.88
2019-05-14T01:20:35.270Z,5.85
2019-05-14T01:22:42.270Z,5.83
2019-05-14T01:24:48.833Z,5.84
2019-05-14T01:26:55.388Z,5.84
2019-05-14T01:29:01.862Z,5.83
2019-05-14T01:31:11.358Z,5.78
2019-05-14T01:33:18.564Z,5.74
2019-05-14T01:35:25.293Z,5.73
2019-05-14T01:37:31.615Z,5.71
2019-05-14T01:39:38.179Z,5.68
2019-05-14T01:41:46.066Z,5.67
2019-05-14T01:43:52.344Z,5.66
2019-05-14T01:45:58.701Z,5.68
2019-05-14T01:48:05.171Z,5.71
2019-05-14T01:50:12.450Z,5.73
2019-05-14T01:52:18.817Z,5.74
2019-05-14T01:54:25.173Z,5.75
2019-05-14T01:56:32.021Z,5.73
2019-05-14T01:58:41.704Z,5.74
2019-05-14T02:00:52.222Z,5.74
2019-05-14T02:02:58.790Z,5.76
2019-05-14T02:05:07.710Z,5.83
2019-05-14T02:07:16.138Z,5.84
2019-05-14T02:09:23.140Z,5.89
2019-05-14T02:11:31.863Z,5.91
2019-05-14T02:13:37.376Z,5.94
2019-05-14T02:15:45.073Z,5.97
2019-05-14T02:17:52.849Z,5.98
2019-05-14T02:19:59.343Z,5.99
2019-05-14T02:22:06.283Z,5.99
2019-05-14T02:24:12.711Z,5.99
2019-05-14T02:26:19.242Z,5.95
2019-05-14T02:28:25.620Z,5.94
2019-05-14T02:30:45.106Z,5.90
2019-05-14T02:32:40.888Z,5.89
2019-05-14T02:34:50.045Z,5.87
2019-05-14T02:36:55.451Z,5.86
2019-05-14T02:39:02.142Z,5.87
2019-05-14T02:41:09.915Z,5.87
2019-05-14T02:43:20.260Z,5.87
2019-05-14T02:45:31.167Z,5.90
2019-05-14T02:47:42.748Z,5.91
2019-05-14T02:49:53.717Z,5.93
2019-05-14T02:52:00.050Z,5.96
2019-05-14T02:54:09.652Z,6.00
2019-05-14T02:56:34.259Z,5.97
2019-05-14T02:58:40.663Z,6.01
2019-05-14T03:00:55.421Z,6.01
2019-05-14T03:03:01.771Z,5.99
2019-05-14T03:05:09.845Z,5.99
2019-05-14T03:07:19.758Z,5.97
2019-05-14T03:09:29.352Z,5.97
2019-05-14T03:11:40.820Z,5.97
2019-05-14T03:13:50.593Z,5.97
2019-05-14T03:15:59.444Z,5.98
2019-05-14T03:18:09.053Z,5.99
2019-05-14T03:20:15.101Z,5.99
2019-05-14T03:22:39.413Z,6.01
2019-05-14T03:24:35.822Z,5.99
2019-05-14T03:26:49.678Z,6.00
2019-05-14T03:28:54.993Z,6.00
2019-05-14T03:31:03.375Z,6.01
2019-05-14T03:33:13.460Z,6.06
2019-05-14T03:35:24.523Z,6.10
2019-05-14T03:37:30.774Z,6.06
2019-05-14T03:39:34.898Z,6.02
2019-05-14T03:41:42.913Z,6.08
2019-05-14T03:43:49.762Z,6.11
2019-05-14T03:45:59.020Z,6.13
2019-05-14T03:48:04.337Z,6.12
2019-05-14T03:50:11.195Z,6.14
2019-05-14T03:52:19.898Z,6.11
2019-05-14T03:54:25.772Z,6.08
2019-05-14T03:56:33.691Z,6.09
2019-05-14T03:58:40.372Z,6.11
2019-05-14T04:01:00.353Z,6.15
2019-05-14T04:03:09.474Z,6.16
2019-05-14T04:05:18.774Z,6.14
2019-05-14T04:07:24.373Z,6.17
2019-05-14T04:09:34.146Z,6.15
2019-05-14T04:11:43.325Z,6.12
2019-05-14T04:13:53.263Z,6.05
2019-05-14T04:16:03.280Z,6.07
2019-05-14T04:18:13.352Z,6.10
2019-05-14T04:20:19.881Z,6.14
2019-05-14T04:22:29.782Z,6.19
2019-05-14T04:24:41.361Z,6.22
2019-05-14T04:27:02.635Z,6.21
2019-05-14T04:29:01.458Z,6.21
2019-05-14T04:31:09.806Z,6.28
2019-05-14T04:33:20.224Z,6.31
2019-05-14T04:35:29.620Z,6.32
2019-05-14T04:37:39.634Z,6.39
2019-05-14T04:39:44.655Z,6.45
2019-05-14T04:41:51.113Z,6.53
2019-05-14T04:43:59.470Z,6.50
2019-05-14T04:46:10.553Z,6.56
2019-05-14T04:48:28.992Z,6.56
2019-05-14T04:50:25.674Z,6.59
2019-05-14T04:52:32.339Z,6.65
2019-05-14T04:54:39.508Z,6.68
2019-05-14T04:56:46.260Z,6.67
2019-05-14T04:58:52.762Z,6.71
2019-05-14T05:01:00.668Z,6.75
2019-05-14T05:03:11.752Z,6.79
2019-05-14T05:05:19.666Z,6.84
2019-05-14T05:07:25.198Z,6.94
2019-05-14T05:09:32.902Z,6.96
2019-05-14T05:11:41.120Z,7.04
2019-05-14T05:13:48.711Z,7.00
2019-05-14T05:15:55.233Z,6.96
2019-05-14T05:18:01.673Z,6.94
2019-05-14T05:20:10.260Z,6.93
2019-05-14T05:22:19.437Z,6.92
2019-05-14T05:24:25.239Z,6.95
2019-05-14T05:26:33.077Z,6.96
2019-05-14T05:28:39.547Z,6.97
2019-05-14T05:30:46.023Z,6.95
2019-05-14T05:32:53.745Z,6.98
2019-05-14T05:35:00.069Z,6.95
2019-05-14T05:37:08.590Z,7.09
2019-05-14T05:39:18.964Z,7.05
2019-05-14T05:41:25.095Z,7.08
2019-05-14T05:43:31.657Z,7.18
2019-05-14T05:45:38.175Z,7.20
2019-05-14T05:47:55.307Z,7.24
2019-05-14T05:49:52.892Z,7.23
2019-05-14T05:51:59.385Z,7.16
2019-05-14T05:54:05.833Z,7.15
2019-05-14T05:56:12.282Z,7.24
2019-05-14T05:58:19.697Z,7.23
2019-05-14T06:00:40.861Z,7.22
2019-05-14T06:02:48.944Z,7.16
2019-05-14T06:04:55.770Z,7.13
2019-05-14T06:07:02.819Z,7.14
2019-05-14T06:09:09.871Z,7.21
2019-05-14T06:11:19.134Z,7.27
2019-05-14T06:13:24.498Z,7.27
2019-05-14T06:15:44.447Z,7.22
2019-05-14T06:17:40.304Z,7.31
2019-05-14T06:19:48.662Z,7.39
2019-05-14T06:21:54.562Z,7.55
2019-05-14T06:24:03.063Z,7.63
2019-05-14T06:26:11.527Z,7.56
2019-05-14T06:28:20.558Z,7.50
2019-05-14T06:30:39.497Z,7.39
2019-05-14T06:32:48.756Z,7.32
2019-05-14T06:34:56.049Z,7.31
2019-05-14T06:37:02.454Z,7.36
2019-05-14T06:39:10.115Z,7.47
2019-05-14T06:41:19.124Z,7.39
2019-05-14T06:43:28.495Z,7.35
2019-05-14T06:45:34.039Z,7.32
2019-05-14T06:47:41.020Z,7.34
2019-05-14T06:49:48.789Z,7.31
2019-05-14T06:51:55.769Z,7.23
2019-05-14T06:54:03.172Z,7.34
2019-05-14T06:56:11.160Z,7.31
2019-05-14T06:58:20.203Z,7.48
2019-05-14T07:00:28.409Z,7.58
2019-05-14T07:02:35.654Z,7.49
2019-05-14T07:04:41.942Z,7.53
2019-05-14T07:06:49.603Z,7.51
2019-05-14T07:08:55.894Z,7.51
2019-05-14T07:11:02.275Z,7.46
2019-05-14T07:13:10.454Z,7.51
2019-05-14T07:15:18.366Z,7.38
2019-05-14T07:17:24.927Z,7.41
2019-05-14T07:19:31.311Z,7.28
2019-05-14T07:21:38.310Z,7.16
2019-05-14T07:23:45.232Z,7.18
2019-05-14T07:25:51.855Z,7.12
2019-05-14T07:27:58.605Z,7.15
2019-05-14T07:30:10.974Z,7.26
2019-05-14T07:32:21.558Z,7.38
2019-05-14T07:34:29.171Z,7.56
2019-05-14T07:36:38.517Z,7.59
2019-05-14T07:38:44.242Z,7.69
2019-05-14T07:40:50.865Z,7.58
2019-05-14T07:42:58.300Z,7.56
2019-05-14T07:45:09.356Z,7.84
2019-05-14T07:47:18.663Z,8.06
2019-05-14T07:49:24.633Z,8.06
2019-05-14T07:51:31.385Z,8.14
2019-05-14T07:53:41.570Z,8.23
2019-05-14T07:55:49.056Z,8.04
2019-05-14T07:57:55.135Z,8.03
2019-05-14T08:00:03.476Z,8.10
2019-05-14T08:02:12.730Z,8.08
2019-05-14T08:04:19.993Z,8.17
2019-05-14T08:06:28.168Z,8.28
2019-05-14T08:08:35.108Z,8.30
2019-05-14T08:10:41.909Z,8.32
2019-05-14T08:12:48.689Z,8.36
2019-05-14T08:15:14.068Z,8.55
2019-05-14T08:17:08.461Z,8.54
2019-05-14T08:19:24.165Z,8.54
2019-05-14T08:21:23.034Z,8.53
2019-05-14T08:23:31.871Z,8.60
2019-05-14T08:25:39.585Z,8.55
2019-05-14T08:27:48.305Z,8.63
2019-05-14T08:29:55.284Z,8.77
2019-05-14T08:32:01.907Z,8.81
2019-05-14T08:34:09.342Z,8.87
2019-05-14T08:36:18.420Z,8.77
2019-05-14T08:38:28.483Z,8.82
2019-05-14T08:40:37.837Z,8.87
2019-05-14T08:42:43.553Z,8.77
2019-05-14T08:44:51.434Z,8.75
2019-05-14T08:46:59.407Z,8.74
2019-05-14T08:49:08.884Z,8.83
2019-05-14T08:51:15.236Z,8.89
2019-05-14T08:53:23.382Z,8.96
2019-05-14T08:55:31.014Z,8.93
2019-05-14T08:57:38.683Z,8.84
2019-05-14T08:59:48.662Z,8.89
2019-05-14T09:02:05.226Z,8.94
2019-05-14T09:04:03.789Z,9.09
2019-05-14T09:06:10.548Z,9.18
2019-05-14T09:08:20.195Z,9.09
2019-05-14T09:10:29.449Z,9.10
2019-05-14T09:12:39.023Z,8.99
2019-05-14T09:14:48.311Z,9.06
2019-05-14T09:16:55.398Z,9.17
2019-05-14T09:19:03.485Z,9.39
2019-05-14T09:21:10.369Z,9.45
2019-05-14T09:23:18.963Z,9.42
2019-05-14T09:25:26.411Z,9.43
2019-05-14T09:27:32.878Z,9.40
2019-05-14T09:29:39.654Z,9.31
2019-05-14T09:31:49.460Z,9.30
2019-05-14T09:33:58.461Z,9.32
2019-05-14T09:36:17.983Z,9.46
2019-05-14T09:38:18.919Z,9.46
2019-05-14T09:40:28.869Z,9.39
2019-05-14T09:42:35.567Z,9.51
2019-05-14T09:44:42.573Z,9.45
2019-05-14T09:46:50.021Z,9.50
2019-05-14T09:48:58.856Z,9.55
2019-05-14T09:51:05.121Z,9.66
2019-05-14T09:53:12.107Z,9.63
2019-05-14T09:55:19.991Z,9.76
2019-05-14T09:57:28.289Z,10.09
2019-05-14T09:59:41.814Z,10.10
2019-05-14T10:01:50.859Z,10.23
2019-05-14T10:03:59.185Z,10.42
2019-05-14T10:06:09.445Z,10.38
2019-05-14T10:08:14.806Z,10.23
2019-05-14T10:10:21.633Z,10.54
2019-05-14T10:12:30.666Z,10.87
2019-05-14T10:14:39.597Z,10.99
2019-05-14T10:16:48.880Z,10.61
2019-05-14T10:18:55.799Z,10.86
2019-05-14T10:21:03.251Z,10.97
2019-05-14T10:23:10.278Z,11.15
2019-05-14T10:25:18.209Z,11.54
2019-05-14T10:27:28.279Z,11.29
2019-05-14T10:29:34.232Z,11.10
2019-05-14T10:31:42.542Z,11.23
2019-05-14T10:33:50.133Z,11.32
2019-05-14T10:35:58.811Z,11.01
2019-05-14T10:38:08.582Z,10.75
2019-05-14T10:40:14.333Z,10.73
2019-05-14T10:42:21.352Z,10.85
2019-05-14T10:44:29.297Z,10.75
2019-05-14T10:46:38.473Z,10.76
2019-05-14T10:48:48.928Z,10.73
2019-05-14T10:50:59.932Z,10.68
2019-05-14T10:53:04.574Z,10.61
2019-05-14T10:55:11.716Z,10.80
2019-05-14T10:57:18.413Z,10.64
2019-05-14T10:59:25.073Z,10.50
2019-05-14T11:01:31.992Z,10.62
2019-05-14T11:03:39.007Z,10.75
2019-05-14T11:05:48.823Z,10.88
2019-05-14T11:07:55.405Z,10.84
2019-05-14T11:10:02.156Z,10.46
2019-05-14T11:12:09.189Z,10.42
2019-05-14T11:14:19.049Z,10.41
2019-05-14T11:16:28.234Z,10.43
2019-05-14T11:18:34.702Z,10.78
2019-05-14T11:20:42.733Z,10.78
2019-05-14T11:22:49.318Z,11.03
2019-05-14T11:24:59.107Z,11.07
2019-05-14T11:27:05.592Z,10.90
2019-05-14T11:29:12.327Z,10.86
2019-05-14T11:31:20.325Z,10.61
2019-05-14T11:33:29.507Z,10.77
2019-05-14T11:35:36.060Z,10.89
2019-05-14T11:37:42.732Z,10.88
2019-05-14T11:39:49.264Z,11.05
2019-05-14T11:41:55.890Z,11.18
2019-05-14T11:44:02.745Z,11.04
2019-05-14T11:46:09.591Z,10.97
2019-05-14T11:48:19.275Z,10.98
2019-05-14T11:50:28.647Z,11.33
2019-05-14T11:52:35.742Z,11.32
2019-05-14T11:54:43.721Z,11.14
2019-05-14T11:56:50.650Z,11.28
2019-05-14T11:58:59.149Z,11.32
2019-05-14T12:01:09.219Z,11.37
2019-05-14T12:03:19.653Z,11.26
2019-05-14T12:05:26.337Z,11.25
2019-05-14T12:07:34.521Z,11.15
2019-05-14T12:09:41.297Z,11.02
2019-05-14T12:11:48.177Z,11.03
2019-05-14T12:13:55.180Z,11.11
2019-05-14T12:16:02.157Z,10.94
2019-05-14T12:18:10.554Z,11.10
2019-05-14T12:20:20.240Z,11.04
2019-05-14T12:22:28.658Z,11.10
2019-05-14T12:24:35.542Z,11.23
2019-05-14T12:26:43.767Z,11.14
2019-05-14T12:28:50.111Z,11.19
2019-05-14T12:30:58.386Z,11.35
2019-05-14T12:33:06.422Z,11.65
2019-05-14T12:35:13.317Z,11.48
2019-05-14T12:37:20.104Z,11.76
2019-05-14T12:39:29.371Z,11.66
2019-05-14T12:41:38.232Z,11.58
2019-05-14T12:43:45.015Z,11.45
2019-05-14T12:45:51.824Z,11.47
2019-05-14T12:47:58.645Z,11.28
2019-05-14T12:50:09.893Z,11.62
2019-05-14T12:52:24.794Z,11.47
2019-05-14T12:54:29.722Z,11.64
2019-05-14T12:56:35.271Z,11.48
2019-05-14T12:58:45.700Z,11.44
2019-05-14T13:00:50.502Z,11.69
2019-05-14T13:02:58.623Z,11.72
2019-05-14T13:05:08.914Z,11.86
2019-05-14T13:07:19.060Z,11.96
2019-05-14T13:09:25.956Z,11.66
2019-05-14T13:11:34.474Z,11.78
2019-05-14T13:13:43.198Z,11.64
2019-05-14T13:15:51.189Z,11.77
2019-05-14T13:17:58.227Z,12.01
2019-05-14T13:20:13.158Z,11.84
2019-05-14T13:22:19.078Z,11.70
2019-05-14T13:24:24.612Z,11.77
2019-05-14T13:26:32.756Z,11.69
2019-05-14T13:28:40.239Z,11.69
2019-05-14T13:30:48.930Z,11.98
2019-05-14T13:32:55.866Z,11.65
2019-05-14T13:35:13.546Z,11.64
2019-05-14T13:37:19.226Z,11.72
2019-05-14T13:39:28.318Z,11.42
2019-05-14T13:41:34.588Z,11.56
2019-05-14T13:43:41.143Z,11.75
2019-05-14T13:45:49.369Z,11.55
2019-05-14T13:47:58.928Z,11.53
2019-05-14T13:50:08.287Z,11.31
2019-05-14T13:52:14.916Z,11.32
2019-05-14T13:54:23.352Z,11.45
2019-05-14T13:56:33.994Z,11.57
2019-05-14T13:58:40.793Z,11.48
2019-05-14T14:00:51.936Z,11.63
2019-05-14T14:03:00.877Z,11.66
2019-05-14T14:05:11.153Z,11.63
2019-05-14T14:07:18.951Z,11.37
2019-05-14T14:09:28.308Z,11.14
2019-05-14T14:11:38.373Z,11.10
2019-05-14T14:13:45.787Z,11.02
2019-05-14T14:15:53.867Z,10.97
2019-05-14T14:18:02.501Z,10.98
2019-05-14T14:20:11.555Z,11.02
2019-05-14T14:22:19.565Z,11.09
2019-05-14T14:24:29.067Z,11.17
2019-05-14T14:26:39.343Z,11.22
2019-05-14T14:28:45.177Z,11.27
2019-05-14T14:30:52.449Z,11.34
2019-05-14T14:32:59.605Z,11.24
2019-05-14T14:35:08.707Z,11.15
2019-05-14T14:37:15.853Z,11.32
2019-05-14T14:39:23.398Z,11.25
2019-05-14T14:41:30.251Z,11.15
2019-05-14T14:43:42.423Z,11.11
2019-05-14T14:45:47.615Z,11.19
2019-05-14T14:47:54.197Z,11.18
2019-05-14T14:50:02.321Z,11.33
2019-05-14T14:52:12.153Z,11.38
2019-05-14T14:54:18.690Z,11.49
2019-05-14T14:56:25.475Z,11.26
2019-05-14T14:58:32.241Z,11.37
2019-05-14T15:00:41.713Z,11.15
2019-05-14T15:02:49.583Z,11.05
2019-05-14T15:04:59.605Z,10.88
2019-05-14T15:07:09.177Z,10.99
2019-05-14T15:09:16.489Z,11.00
2019-05-14T15:11:23.390Z,11.12
2019-05-14T15:13:30.285Z,11.09
2019-05-14T15:15:39.348Z,11.06
2019-05-14T15:17:49.163Z,10.99
2019-05-14T15:20:00.217Z,10.84
2019-05-14T15:22:08.828Z,10.87
2019-05-14T15:24:16.059Z,10.82
2019-05-14T15:26:23.687Z,10.61
2019-05-14T15:28:30.341Z,10.57
2019-05-14T15:30:39.671Z,10.51
2019-05-14T15:32:50.985Z,10.42
2019-05-14T15:34:54.189Z,10.45
2019-05-14T15:37:01.468Z,10.49
2019-05-14T15:39:10.669Z,10.50
2019-05-14T15:41:20.093Z,10.48
2019-05-14T15:43:28.437Z,10.49
2019-05-14T15:45:34.534Z,10.45
2019-05-14T15:47:41.458Z,10.33
2019-05-14T15:49:49.396Z,10.37
2019-05-14T15:51:57.013Z,10.39
2019-05-14T15:54:16.271Z,10.34
2019-05-14T15:56:18.117Z,10.29
2019-05-14T15:58:24.264Z,10.31
2019-05-14T16:00:31.259Z,10.40
2019-05-14T16:02:39.624Z,10.36
2019-05-14T16:04:46.902Z,10.30
2019-05-14T16:06:53.693Z,10.26
2019-05-14T16:09:00.673Z,10.24
2019-05-14T16:11:11.529Z,10.23
2019-05-14T16:13:20.885Z,10.15
2019-05-14T16:15:28.035Z,10.15
2019-05-14T16:17:35.047Z,10.17
2019-05-14T16:19:41.872Z,10.14
2019-05-14T16:21:48.678Z,10.13
2019-05-14T16:23:58.839Z,10.03
2019-05-14T16:26:08.910Z,9.93
2019-05-14T16:28:16.007Z,9.98
2019-05-14T16:30:22.922Z,9.98
2019-05-14T16:32:30.107Z,9.93
2019-05-14T16:34:40.777Z,9.93
2019-05-14T16:36:48.802Z,9.92
2019-05-14T16:38:58.285Z,9.81
2019-05-14T16:41:04.781Z,9.75
2019-05-14T16:43:11.214Z,9.71
2019-05-14T16:45:18.722Z,9.68
2019-05-14T16:47:28.059Z,9.64
2019-05-14T16:49:34.528Z,9.62
2019-05-14T16:51:41.620Z,9.58
2019-05-14T16:53:48.992Z,9.57
2019-05-14T16:55:58.139Z,9.55
2019-05-14T16:58:04.944Z,9.55
2019-05-14T17:00:12.439Z,9.52
2019-05-14T17:02:19.342Z,9.49
2019-05-14T17:04:29.362Z,9.48
2019-05-14T17:06:38.706Z,9.45
2019-05-14T17:08:45.637Z,9.45
2019-05-14T17:10:52.398Z,9.47
2019-05-14T17:13:01.836Z,9.43
2019-05-14T17:15:09.632Z,9.42
2019-05-14T17:17:20.150Z,9.39
2019-05-14T17:19:26.571Z,9.35
2019-05-14T17:21:33.867Z,9.36
2019-05-14T17:23:40.705Z,9.34
2019-05-14T17:25:48.521Z,9.33
2019-05-14T17:27:59.403Z,9.29
2019-05-14T17:30:08.892Z,9.29
2019-05-14T17:32:18.578Z,9.30
2019-05-14T17:34:25.726Z,9.24
2019-05-14T17:36:32.573Z,9.19
2019-05-14T17:38:39.908Z,9.18
2019-05-14T17:40:48.831Z,9.17
2019-05-14T17:42:55.712Z,9.15
2019-05-14T17:45:02.766Z,9.12
2019-05-14T17:47:11.257Z,9.09
2019-05-14T17:49:19.138Z,9.09
2019-05-14T17:51:28.408Z,9.07
2019-05-14T17:53:38.375Z,9.06
2019-05-14T17:55:48.238Z,9.05
2019-05-14T17:57:59.013Z,9.01
2019-05-14T18:00:09.497Z,9.02
2019-05-14T18:02:19.127Z,8.96
2019-05-14T18:04:28.185Z,8.94
2019-05-14T18:06:35.355Z,8.93
2019-05-14T18:08:42.320Z,8.89
2019-05-14T18:10:50.612Z,8.87
2019-05-14T18:12:59.784Z,8.87
2019-05-14T18:15:08.602Z,8.87
2019-05-14T18:17:18.138Z,8.83
2019-05-14T18:19:25.299Z,8.82
2019-05-14T18:21:32.297Z,8.82
2019-05-14T18:23:41.959Z,8.79
2019-05-14T18:26:03.991Z,8.79
2019-05-14T18:27:58.220Z,8.73
2019-05-14T18:30:09.622Z,8.73
2019-05-14T18:32:19.049Z,8.72
2019-05-14T18:34:28.385Z,8.72
2019-05-14T18:36:39.498Z,8.72
2019-05-14T18:38:49.515Z,8.67
2019-05-14T18:40:58.617Z,8.66
2019-05-14T18:43:08.612Z,8.64
2019-05-14T18:45:16.091Z,8.58
2019-05-14T18:47:23.363Z,8.60
2019-05-14T18:49:30.318Z,8.59
2019-05-14T18:51:39.332Z,8.57
2019-05-14T18:53:48.927Z,8.55
2019-05-14T18:55:55.964Z,8.52
2019-05-14T18:58:03.412Z,8.50
2019-05-14T19:00:11.558Z,8.49
2019-05-14T19:02:18.850Z,8.47
2019-05-14T19:04:27.959Z,8.46
2019-05-14T19:06:35.294Z,8.46
2019-05-14T19:08:42.042Z,8.45
2019-05-14T19:10:50.757Z,8.47
2019-05-14T19:12:58.847Z,8.47
2019-05-14T19:15:08.687Z,8.44
2019-05-14T19:17:18.663Z,8.43
2019-05-14T19:19:25.802Z,8.38
2019-05-14T19:21:32.816Z,8.38
2019-05-14T19:23:40.460Z,8.33
2019-05-14T19:25:48.445Z,8.33
2019-05-14T19:27:58.245Z,8.31
2019-05-14T19:30:05.285Z,8.29
2019-05-14T19:32:12.179Z,8.22
2019-05-14T19:34:19.321Z,8.05
2019-05-14T19:36:28.862Z,7.92
2019-05-14T19:38:38.859Z,7.80
2019-05-14T19:40:48.242Z,7.69
2019-05-14T19:42:54.931Z,7.64
2019-05-14T19:45:03.630Z,7.58
2019-05-14T19:47:11.132Z,7.55
2019-05-14T19:49:19.367Z,7.51
2019-05-14T19:51:27.945Z,7.53
2019-05-14T19:53:38.992Z,7.53
2019-05-14T19:55:45.509Z,7.51
2019-05-14T19:57:52.876Z,7.50
2019-05-14T20:00:00.102Z,7.51
2019-05-14T20:02:09.348Z,7.51
2019-05-14T20:04:18.109Z,7.50
2019-05-14T20:06:24.345Z,7.48
2019-05-14T20:08:31.356Z,7.48
2019-05-14T20:10:38.925Z,7.49
2019-05-14T20:12:48.271Z,7.48
2019-05-14T20:14:55.418Z,7.47
2019-05-14T20:17:02.344Z,7.47
2019-05-14T20:19:10.826Z,7.49
2019-05-14T20:21:18.317Z,7.49
2019-05-14T20:23:28.943Z,7.49
2019-05-14T20:25:38.583Z,7.49
2019-05-14T20:27:45.349Z,7.50
2019-05-14T20:29:52.064Z,7.50
2019-05-14T20:32:01.822Z,7.50
2019-05-14T20:34:08.928Z,7.51
2019-05-14T20:36:15.508Z,7.47
2019-05-14T20:38:24.686Z,7.49
2019-05-14T20:40:32.732Z,7.48
2019-05-14T20:42:40.263Z,7.49
2019-05-14T20:44:49.011Z,7.47
2019-05-14T20:46:55.306Z,7.49
2019-05-14T20:49:02.088Z,7.50
2019-05-14T20:51:09.619Z,7.48
2019-05-14T20:53:18.610Z,7.48
2019-05-14T20:55:28.364Z,7.48
2019-05-14T20:57:34.106Z,7.51
2019-05-14T20:59:41.066Z,7.50
2019-05-14T21:01:48.136Z,7.50
2019-05-14T21:03:54.896Z,7.49
2019-05-14T21:06:01.561Z,7.48
2019-05-14T21:08:13.546Z,7.47
2019-05-14T21:10:19.407Z,7.49
2019-05-14T21:12:28.618Z,7.48
2019-05-14T21:14:35.847Z,7.50
2019-05-14T21:16:48.828Z,7.50
2019-05-14T21:18:59.071Z,7.49
2019-05-14T21:21:04.899Z,7.50
2019-05-14T21:23:13.296Z,7.51
2019-05-14T21:25:24.123Z,7.50
2019-05-14T21:27:44.411Z,7.49
2019-05-14T21:29:45.916Z,7.50
2019-05-14T21:31:54.205Z,7.49
2019-05-14T21:34:02.582Z,7.48
2019-05-14T21:36:16.066Z,7.49
2019-05-14T21:38:24.557Z,7.48
2019-05-14T21:40:39.027Z,7.50
2019-05-14T21:42:50.274Z,7.50
2019-05-14T21:44:58.518Z,7.50
2019-05-14T21:47:08.416Z,7.50
2019-05-14T21:49:18.891Z,7.50
2019-05-14T21:51:25.070Z,7.51
2019-05-14T21:53:31.701Z,7.51
2019-05-14T21:55:38.984Z,7.53
2019-05-14T21:57:56.081Z,7.54
2019-05-14T21:59:55.606Z,7.55
2019-05-14T22:02:02.436Z,7.57
2019-05-14T22:04:11.596Z,7.55
2019-05-14T22:06:20.647Z,7.51
2019-05-14T22:08:31.622Z,7.49
2019-05-14T22:10:39.906Z,7.48
2019-05-14T22:12:48.767Z,7.49
2019-05-14T22:14:55.583Z,7.50
2019-05-14T22:17:07.885Z,7.48
2019-05-14T22:19:15.784Z,7.48
2019-05-14T22:21:22.514Z,7.48
2019-05-14T22:23:29.308Z,7.47
2019-05-14T22:25:36.091Z,7.46
2019-05-14T22:27:42.865Z,7.43
2019-05-14T22:29:50.982Z,7.41
2019-05-14T22:31:58.723Z,7.39
2019-05-14T22:34:05.562Z,7.37
2019-05-14T22:36:12.656Z,7.32
2019-05-14T22:38:20.973Z,7.30
2019-05-14T22:40:29.185Z,7.27
2019-05-14T22:42:40.074Z,7.23
2019-05-14T22:44:50.163Z,7.20
2019-05-14T22:46:55.734Z,7.15
2019-05-14T22:49:02.378Z,7.15
2019-05-14T22:51:09.174Z,7.09
2019-05-14T22:53:18.614Z,7.08
2019-05-14T22:55:29.018Z,7.06
2019-05-14T22:57:39.196Z,7.02
2019-05-14T22:59:49.434Z,6.99
2019-05-14T23:01:58.839Z,6.93
2019-05-14T23:04:08.977Z,6.87
2019-05-14T23:06:15.824Z,6.87
2019-05-14T23:08:22.344Z,6.86
2019-05-14T23:10:28.923Z,6.83
2019-05-14T23:12:39.702Z,6.81
2019-05-14T23:14:48.691Z,6.81
2019-05-14T23:16:59.521Z,6.80
2019-05-14T23:19:07.993Z,6.78
2019-05-14T23:21:19.559Z,6.76
2019-05-14T23:23:28.193Z,6.72
2019-05-14T23:25:34.673Z,6.68
2019-05-14T23:27:41.370Z,6.66
2019-05-14T23:29:49.248Z,6.65
2019-05-14T23:31:56.004Z,6.63
2019-05-14T23:34:02.768Z,6.63
2019-05-14T23:36:09.641Z,6.62
2019-05-14T23:38:19.107Z,6.60
2019-05-14T23:40:25.685Z,6.55
2019-05-14T23:42:32.202Z,6.55
2019-05-14T23:44:40.117Z,6.48
2019-05-14T23:46:48.258Z,6.45
2019-05-14T23:48:55.105Z,6.44
2019-05-14T23:51:03.117Z,6.39
2019-05-14T23:53:11.189Z,6.33
2019-05-14T23:55:18.063Z,6.28
2019-05-14T23:57:30.251Z,6.23
2019-05-14T23:59:39.466Z,6.24
